createdAt,value
2023-05-03T00:02:12.348Z,99502.07
2023-05-03T00:04:39.528Z,99503.09
2023-05-03T00:07:06.930Z,99501.21
2023-05-03T00:09:35.740Z,99503.21
2023-05-03T00:12:02.757Z,99506.43
2023-05-03T00:14:29.699Z,99501.84
2023-05-03T00:16:56.544Z,99501.52
2023-05-03T00:19:31.350Z,99500.91
2023-05-03T00:21:59.598Z,99498.77
2023-05-03T00:24:27.489Z,99499.33
2023-05-03T00:26:54.299Z,99497.21
2023-05-03T00:29:23.174Z,99497.34
2023-05-03T00:31:50.021Z,99489.98
2023-05-03T00:34:17.142Z,99493.97
2023-05-03T00:36:44.988Z,99491.48
2023-05-03T00:39:12.298Z,99484.83
2023-05-03T00:41:39.274Z,99487.71
2023-05-03T00:44:07.241Z,99483.66
2023-05-03T00:46:34.767Z,99480.64
2023-05-03T00:49:01.701Z,99483.98
2023-05-03T00:51:28.566Z,99482.55
2023-05-03T00:53:55.872Z,99483.37
2023-05-03T00:56:23.842Z,99483.49
2023-05-03T00:58:51.854Z,99484.77
2023-05-03T01:01:19.061Z,99477.67
2023-05-03T01:03:46.605Z,99479.26
2023-05-03T01:06:37.961Z,99475.64
2023-05-03T01:09:10.414Z,99476.98
2023-05-03T01:11:54.800Z,99475.29
2023-05-03T01:14:50.404Z,99475.83
2023-05-03T01:17:18.429Z,99467.86
2023-05-03T01:19:56.479Z,99467.41
2023-05-03T01:22:27.190Z,99466.89
2023-05-03T01:25:06.277Z,99464.73
2023-05-03T01:27:33.305Z,99466.44
2023-05-03T01:30:00.319Z,99460.02
2023-05-03T01:32:51.456Z,99463.98
2023-05-03T01:35:21.117Z,99462.11
2023-05-03T01:37:48.358Z,99459.33
2023-05-03T01:40:16.984Z,99454.59
2023-05-03T01:42:43.866Z,99451.14
2023-05-03T01:45:11.142Z,99449.41
2023-05-03T01:47:38.045Z,99445.70
2023-05-03T01:50:05.320Z,99440.06
2023-05-03T01:52:32.535Z,99440.06
2023-05-03T01:55:00.311Z,99438.52
2023-05-03T01:57:27.167Z,99443.42
2023-05-03T01:59:54.026Z,99441.89
2023-05-03T02:02:20.892Z,99436.33
2023-05-03T02:04:47.801Z,99444.17
2023-05-03T02:07:14.690Z,99447.02
2023-05-03T02:09:41.772Z,99446.23
2023-05-03T02:12:10.018Z,99452.09
2023-05-03T02:14:37.006Z,99454.29
2023-05-03T02:17:03.828Z,99455.15
2023-05-03T02:19:30.753Z,99461.48
2023-05-03T02:21:57.735Z,99462.33
2023-05-03T02:24:24.605Z,99465.14
2023-05-03T02:26:51.438Z,99463.51
2023-05-03T02:29:18.580Z,99462.45
2023-05-03T02:31:45.802Z,99463.02
2023-05-03T02:34:12.703Z,99468.02
2023-05-03T02:36:39.577Z,99466.67
2023-05-03T02:39:06.949Z,99471.02
2023-05-03T02:41:33.870Z,99470.48
2023-05-03T02:44:01.023Z,99470.44
2023-05-03T02:46:28.032Z,99470.10
2023-05-03T02:48:54.932Z,99471.73
2023-05-03T02:51:21.768Z,99473.52
2023-05-03T02:53:49.070Z,99465.48
2023-05-03T02:56:15.887Z,99462.27
2023-05-03T02:58:42.756Z,99460.08
2023-05-03T03:01:11.301Z,99457.26
2023-05-03T03:03:38.234Z,99459.90
2023-05-03T03:06:06.874Z,99455.92
2023-05-03T03:08:34.505Z,99451.70
2023-05-03T03:11:01.760Z,99455.67
2023-05-03T03:13:28.638Z,99452.30
2023-05-03T03:15:55.584Z,99451.92
2023-05-03T03:18:22.406Z,99453.33
2023-05-03T03:20:49.317Z,99454.02
2023-05-03T03:23:16.299Z,99455.92
2023-05-03T03:25:43.231Z,99457.23
2023-05-03T03:28:10.125Z,99453.27
2023-05-03T03:30:39.651Z,99459.02
2023-05-03T03:33:25.944Z,99459.95
2023-05-03T03:35:54.944Z,99460.48
2023-05-03T03:38:22.995Z,99462.09
2023-05-03T03:40:54.482Z,99454.05
2023-05-03T03:43:21.430Z,99458.59
2023-05-03T03:45:48.438Z,99458.03
2023-05-03T03:48:15.678Z,99457.71
2023-05-03T03:50:42.819Z,99457.35
2023-05-03T03:53:11.702Z,99461.58
2023-05-03T03:55:39.620Z,99461.60
2023-05-03T03:58:07.078Z,99460.83
2023-05-03T04:00:35.829Z,99463.39
2023-05-03T04:03:07.771Z,99464.73
2023-05-03T04:05:35.200Z,99470.05
2023-05-03T04:08:02.392Z,99469.50
2023-05-03T04:10:30.554Z,99468.28
2023-05-03T04:12:57.423Z,99467.73
2023-05-03T04:15:24.416Z,99466.64
2023-05-03T04:17:51.624Z,99472.35
2023-05-03T04:20:20.139Z,99478.05
2023-05-03T04:22:48.206Z,99475.02
2023-05-03T04:25:17.285Z,99475.56
2023-05-03T04:27:48.932Z,99477.19
2023-05-03T04:30:17.640Z,99475.02
2023-05-03T04:32:47.737Z,99478.28
2023-05-03T04:35:14.807Z,99472.36
2023-05-03T04:37:44.614Z,99471.65
2023-05-03T04:40:12.932Z,99474.67
2023-05-03T04:42:44.554Z,99473.53
2023-05-03T04:45:11.783Z,99479.80
2023-05-03T04:47:38.687Z,99475.83
2023-05-03T04:50:10.694Z,99476.34
2023-05-03T04:52:38.620Z,99480.64
2023-05-03T04:55:06.542Z,99477.75
2023-05-03T04:57:34.024Z,99487.48
2023-05-03T05:00:01.765Z,99488.65
2023-05-03T05:02:29.180Z,99488.70
2023-05-03T05:04:56.069Z,99485.76
2023-05-03T05:07:22.893Z,99486.27
2023-05-03T05:09:49.764Z,99488.30
2023-05-03T05:12:17.878Z,99480.24
2023-05-03T05:14:45.758Z,99488.00
2023-05-03T05:17:13.442Z,99489.64
2023-05-03T05:19:43.120Z,99495.23
2023-05-03T05:22:11.173Z,99498.73
2023-05-03T05:24:51.653Z,99492.75
2023-05-03T05:27:19.088Z,99488.35
2023-05-03T05:29:46.108Z,99486.52
2023-05-03T05:32:14.996Z,99483.56
2023-05-03T05:34:45.115Z,99484.76
2023-05-03T05:37:15.260Z,99486.05
2023-05-03T05:39:42.717Z,99484.12
2023-05-03T05:42:10.859Z,99480.92
2023-05-03T05:44:37.796Z,99475.66
2023-05-03T05:47:07.320Z,99473.65
2023-05-03T05:49:36.240Z,99474.63
2023-05-03T05:52:05.276Z,99465.78
2023-05-03T05:54:32.515Z,99466.23
2023-05-03T05:56:59.726Z,99459.33
2023-05-03T05:59:29.749Z,99461.14
2023-05-03T06:01:57.378Z,99457.39
2023-05-03T06:04:24.409Z,99461.86
2023-05-03T06:06:51.978Z,99460.55
2023-05-03T06:11:51.395Z,99453.96
2023-05-03T06:14:20.809Z,99454.51
2023-05-03T06:16:48.167Z,99452.34
2023-05-03T06:19:15.392Z,99459.13
2023-05-03T06:21:42.247Z,99450.98
2023-05-03T06:24:10.025Z,99451.02
2023-05-03T06:26:37.030Z,99445.59
2023-05-03T06:29:04.210Z,99442.46
2023-05-03T06:31:31.238Z,99441.62
2023-05-03T06:33:58.624Z,99441.58
2023-05-03T06:36:27.848Z,99440.46
2023-05-03T06:38:55.095Z,99431.69
2023-05-03T06:41:22.038Z,99436.80
2023-05-03T06:43:48.949Z,99439.55
2023-05-03T06:46:18.277Z,99439.27
2023-05-03T06:48:47.736Z,99435.88
2023-05-03T06:51:15.894Z,99445.03
2023-05-03T06:53:42.810Z,99441.59
2023-05-03T06:56:09.936Z,99443.05
2023-05-03T06:58:37.061Z,99442.14
2023-05-03T07:01:03.910Z,99437.65
2023-05-03T07:03:32.119Z,99438.36
2023-05-03T07:05:59.675Z,99439.08
2023-05-03T07:08:26.559Z,99431.63
2023-05-03T07:10:53.441Z,99436.72
2023-05-03T07:13:21.526Z,99431.39
2023-05-03T07:15:48.475Z,99429.17
2023-05-03T07:18:15.382Z,99431.77
2023-05-03T07:20:42.347Z,99432.54
2023-05-03T07:23:09.194Z,99434.05
2023-05-03T07:25:36.006Z,99430.89
2023-05-03T07:28:03.461Z,99421.50
2023-05-03T07:30:30.385Z,99426.79
2023-05-03T07:32:57.496Z,99427.37
2023-05-03T07:35:24.637Z,99423.33
2023-05-03T07:37:51.584Z,99427.61
2023-05-03T07:40:20.678Z,99424.53
2023-05-03T07:43:56.673Z,99417.86
2023-05-03T07:46:23.682Z,99421.69
2023-05-03T07:48:50.785Z,99415.80
2023-05-03T07:51:17.652Z,99423.74
2023-05-03T07:53:44.616Z,99420.42
2023-05-03T07:56:11.561Z,99419.60
2023-05-03T07:58:40.647Z,99410.73
2023-05-03T08:01:08.043Z,99416.85
2023-05-03T08:03:36.101Z,99417.11
2023-05-03T08:06:04.630Z,99417.75
2023-05-03T08:08:32.318Z,99415.58
2023-05-03T08:10:59.204Z,99411.55
2023-05-03T08:13:26.241Z,99411.13
2023-05-03T08:15:53.225Z,99415.21
2023-05-03T08:18:22.230Z,99414.05
2023-05-03T08:20:50.067Z,99409.19
2023-05-03T08:23:19.319Z,99416.73
2023-05-03T08:25:50.305Z,99419.08
2023-05-03T08:28:17.142Z,99425.62
2023-05-03T08:30:45.185Z,99418.39
2023-05-03T08:33:12.047Z,99416.58
2023-05-03T08:35:39.032Z,99421.05
2023-05-03T08:38:06.531Z,99409.30
2023-05-03T08:40:37.260Z,99408.27
2023-05-03T08:43:08.736Z,99405.52
2023-05-03T08:45:35.738Z,99411.09
2023-05-03T08:48:04.703Z,99407.91
2023-05-03T08:50:32.060Z,99413.10
2023-05-03T08:52:59.667Z,99415.75
2023-05-03T08:55:27.610Z,99413.00
2023-05-03T08:57:54.580Z,99411.42
2023-05-03T09:00:28.291Z,99419.07
2023-05-03T09:02:55.242Z,99419.27
2023-05-03T09:05:22.115Z,99417.36
2023-05-03T09:08:06.558Z,99418.83
2023-05-03T09:10:34.430Z,99417.34
2023-05-03T09:13:02.543Z,99425.18
2023-05-03T09:15:30.738Z,99429.30
2023-05-03T09:18:17.627Z,99423.35
2023-05-03T09:20:54.367Z,99429.42
2023-05-03T09:23:27.647Z,99427.45
2023-05-03T09:25:54.545Z,99432.40
2023-05-03T09:28:21.439Z,99427.60
2023-05-03T09:30:49.071Z,99425.70
2023-05-03T09:33:23.125Z,99429.35
2023-05-03T09:36:00.606Z,99425.54
2023-05-03T09:38:28.662Z,99431.75
2023-05-03T09:40:55.991Z,99432.23
2023-05-03T09:43:22.932Z,99424.05
2023-05-03T09:45:49.930Z,99432.13
2023-05-03T09:48:16.967Z,99427.42
2023-05-03T09:50:43.994Z,99429.40
2023-05-03T09:53:10.894Z,99427.05
2023-05-03T09:55:39.030Z,99428.56
2023-05-03T09:58:07.793Z,99425.52
2023-05-03T10:00:38.727Z,99420.89
2023-05-03T10:03:11.568Z,99422.71
2023-05-03T10:05:49.256Z,99419.67
2023-05-03T10:08:56.841Z,99422.28
2023-05-03T10:11:27.148Z,99416.17
2023-05-03T10:13:55.862Z,99422.98
2023-05-03T10:16:39.407Z,99423.61
2023-05-03T10:19:16.249Z,99427.79
2023-05-03T10:21:57.646Z,99430.24
2023-05-03T10:24:25.383Z,99429.77
2023-05-03T10:26:52.393Z,99428.05
2023-05-03T10:29:34.762Z,99426.66
2023-05-03T10:32:04.749Z,99427.54
2023-05-03T10:34:35.206Z,99419.73
2023-05-03T10:37:09.722Z,99415.45
2023-05-03T10:39:37.044Z,99418.06
2023-05-03T10:42:06.239Z,99427.60
2023-05-03T10:44:40.042Z,99426.17
2023-05-03T10:47:14.754Z,99423.19
2023-05-03T10:49:41.612Z,99420.09
2023-05-03T10:52:39.833Z,99422.17
2023-05-03T10:55:15.064Z,99419.63
2023-05-03T10:57:46.911Z,99412.30
2023-05-03T11:00:19.218Z,99404.17
2023-05-03T11:03:09.343Z,99415.45
2023-05-03T11:05:36.415Z,99411.24
2023-05-03T11:08:18.072Z,99415.63
2023-05-03T11:10:45.871Z,99414.23
2023-05-03T11:13:12.875Z,99412.89
2023-05-03T11:15:39.967Z,99416.22
2023-05-03T11:18:07.702Z,99409.38
2023-05-03T11:20:36.422Z,99413.65
2023-05-03T11:23:06.105Z,99415.04
2023-05-03T11:25:34.105Z,99410.45
2023-05-03T11:28:02.226Z,99407.86
2023-05-03T11:30:29.643Z,99408.92
2023-05-03T11:32:56.775Z,99410.20
2023-05-03T11:35:25.990Z,99408.73
2023-05-03T11:37:54.128Z,99409.09
2023-05-03T11:40:21.465Z,99407.55
2023-05-03T11:42:56.311Z,99405.31
2023-05-03T11:45:27.652Z,99406.30
2023-05-03T11:47:55.679Z,99401.71
2023-05-03T11:50:48.111Z,99407.29
2023-05-03T11:53:15.865Z,99403.58
2023-05-03T11:55:43.782Z,99401.75
2023-05-03T11:58:14.710Z,99397.95
2023-05-03T12:00:46.173Z,99398.39
2023-05-03T12:03:21.913Z,99397.67
2023-05-03T12:05:51.097Z,99391.68
2023-05-03T12:08:20.805Z,99393.92
2023-05-03T12:10:53.380Z,99390.56
2023-05-03T12:13:30.021Z,99389.85
2023-05-03T12:18:50.365Z,99386.92
2023-05-03T12:23:55.663Z,99382.38
2023-05-03T12:26:25.588Z,99375.30
2023-05-03T12:28:56.017Z,99374.30
2023-05-03T12:31:23.869Z,99371.63
2023-05-03T12:34:09.161Z,99368.08
2023-05-03T12:36:38.442Z,99367.96
2023-05-03T12:39:10.241Z,99365.70
2023-05-03T12:44:10.786Z,99360.42
2023-05-03T12:46:39.177Z,99359.77
2023-05-03T12:49:08.079Z,99353.84
2023-05-03T12:51:36.561Z,99349.48
2023-05-03T12:54:10.236Z,99341.37
2023-05-03T12:56:40.404Z,99341.94
2023-05-03T12:59:39.306Z,99342.23
2023-05-03T13:06:59.199Z,99335.18
2023-05-03T13:09:37.808Z,99337.07
2023-05-03T13:12:05.633Z,99334.05
2023-05-03T13:14:33.693Z,99337.06
2023-05-03T13:17:01.576Z,99337.33
2023-05-03T13:19:28.651Z,99332.42
2023-05-03T13:21:55.591Z,99329.40
2023-05-03T13:24:22.401Z,99327.66
2023-05-03T13:26:49.343Z,99328.17
2023-05-03T13:29:16.327Z,99326.75
2023-05-03T13:31:43.229Z,99326.09
2023-05-03T13:34:10.110Z,99334.20
2023-05-03T13:36:37.028Z,99332.76
2023-05-03T13:39:03.878Z,99330.98
2023-05-03T13:41:30.691Z,99327.31
2023-05-03T13:43:57.519Z,99334.20
2023-05-03T13:46:24.456Z,99332.20
2023-05-03T13:48:52.746Z,99331.91
2023-05-03T13:51:20.056Z,99332.34
2023-05-03T13:53:46.905Z,99329.91
2023-05-03T13:56:13.721Z,99328.23
2023-05-03T13:58:41.177Z,99331.05
2023-05-03T14:01:08.082Z,99331.00
2023-05-03T14:03:35.041Z,99335.23
2023-05-03T14:06:02.929Z,99335.77
2023-05-03T14:08:31.056Z,99336.38
2023-05-03T14:10:57.999Z,99334.36
2023-05-03T14:13:25.065Z,99330.17
2023-05-03T14:15:52.128Z,99335.31
2023-05-03T14:18:19.206Z,99336.16
2023-05-03T14:20:47.182Z,99332.63
2023-05-03T14:23:13.976Z,99333.91
2023-05-03T14:25:41.299Z,99331.23
2023-05-03T14:28:08.194Z,99336.73
2023-05-03T14:30:35.124Z,99338.88
2023-05-03T14:33:02.106Z,99334.30
2023-05-03T14:35:29.014Z,99340.36
2023-05-03T14:37:56.057Z,99337.99
2023-05-03T14:40:22.967Z,99333.75
2023-05-03T14:42:50.220Z,99337.35
2023-05-03T14:45:17.320Z,99337.63
2023-05-03T14:47:44.359Z,99339.54
2023-05-03T14:50:11.404Z,99342.21
2023-05-03T14:52:38.629Z,99342.34
2023-05-03T14:55:06.891Z,99341.11
2023-05-03T14:57:34.033Z,99342.34
2023-05-03T15:00:02.657Z,99341.63
2023-05-03T15:02:29.980Z,99344.45
2023-05-03T15:04:57.307Z,99342.02
2023-05-03T15:07:24.151Z,99346.86
2023-05-03T15:09:51.552Z,99349.22
2023-05-03T15:12:18.367Z,99348.16
2023-05-03T15:14:45.354Z,99345.80
2023-05-03T15:17:12.973Z,99343.42
2023-05-03T15:19:39.991Z,99342.52
2023-05-03T15:22:06.893Z,99344.89
2023-05-03T15:24:33.734Z,99349.09
2023-05-03T15:27:02.911Z,99343.30
2023-05-03T15:29:29.755Z,99341.86
2023-05-03T15:31:57.665Z,99340.77
2023-05-03T15:34:24.587Z,99341.87
2023-05-03T15:36:51.472Z,99340.85
2023-05-03T15:39:18.364Z,99339.06
2023-05-03T15:41:48.001Z,99339.77
2023-05-03T15:44:16.321Z,99336.44
2023-05-03T15:46:44.368Z,99338.23
2023-05-03T15:49:12.036Z,99337.19
2023-05-03T15:51:39.417Z,99337.55
2023-05-03T15:54:06.319Z,99339.30
2023-05-03T15:56:33.160Z,99338.14
2023-05-03T15:58:59.937Z,99334.98
2023-05-03T16:01:26.939Z,99333.66
2023-05-03T16:03:53.930Z,99334.34
2023-05-03T16:06:20.799Z,99336.86
2023-05-03T16:08:47.713Z,99335.44
2023-05-03T16:11:15.058Z,99336.90
2023-05-03T16:13:41.958Z,99337.34
2023-05-03T16:16:08.982Z,99335.42
2023-05-03T16:18:35.881Z,99342.14
2023-05-03T16:21:03.101Z,99341.89
2023-05-03T16:23:30.091Z,99341.23
2023-05-03T16:25:57.168Z,99349.04
2023-05-03T16:28:24.044Z,99354.52
2023-05-03T16:30:51.921Z,99357.52
2023-05-03T16:33:19.558Z,99362.12
2023-05-03T16:35:46.541Z,99366.69
2023-05-03T16:38:13.422Z,99368.55
2023-05-03T16:40:40.873Z,99372.13
2023-05-03T16:43:07.907Z,99375.98
2023-05-03T16:45:34.756Z,99375.92
2023-05-03T16:48:04.776Z,99382.13
2023-05-03T16:50:33.145Z,99382.18
2023-05-03T16:53:00.024Z,99391.05
2023-05-03T16:55:26.886Z,99389.87
2023-05-03T16:57:53.772Z,99389.15
2023-05-03T17:00:22.080Z,99392.66
2023-05-03T17:02:49.233Z,99393.77
2023-05-03T17:05:16.293Z,99395.81
2023-05-03T17:07:43.217Z,99398.10
2023-05-03T17:10:10.544Z,99399.56
2023-05-03T17:12:37.645Z,99399.86
2023-05-03T17:15:04.954Z,99400.75
2023-05-03T17:17:32.506Z,99401.59
2023-05-03T17:19:59.676Z,99400.82
2023-05-03T17:22:28.227Z,99402.62
2023-05-03T17:24:57.878Z,99401.61
2023-05-03T17:27:24.852Z,99402.67
2023-05-03T17:29:51.789Z,99402.00
2023-05-03T17:32:18.644Z,99401.34
2023-05-03T17:34:45.512Z,99403.88
2023-05-03T17:37:12.336Z,99403.95
2023-05-03T17:39:39.519Z,99398.08
2023-05-03T17:42:06.527Z,99406.63
2023-05-03T17:44:33.395Z,99411.88
2023-05-03T17:47:00.860Z,99416.59
2023-05-03T17:49:27.633Z,99418.60
2023-05-03T17:51:54.510Z,99417.81
2023-05-03T17:54:21.365Z,99420.70
2023-05-03T17:56:48.171Z,99428.55
2023-05-03T17:59:15.082Z,99434.95
2023-05-03T18:01:42.189Z,99430.58
2023-05-03T18:04:09.718Z,99448.73
2023-05-03T18:06:36.685Z,99451.22
2023-05-03T18:09:04.409Z,99451.95
2023-05-03T18:11:31.236Z,99460.31
2023-05-03T18:13:58.105Z,99457.23
2023-05-03T18:16:24.996Z,99460.61
2023-05-03T18:18:53.202Z,99469.57
2023-05-03T18:21:22.110Z,99468.94
2023-05-03T18:23:49.055Z,99469.21
2023-05-03T18:26:17.327Z,99467.91
2023-05-03T18:28:44.200Z,99469.27
2023-05-03T18:31:11.212Z,99468.77
2023-05-03T18:33:40.252Z,99466.91
2023-05-03T18:36:11.655Z,99466.22
2023-05-03T18:38:39.036Z,99462.15
2023-05-03T18:41:14.650Z,99464.58
2023-05-03T18:43:46.070Z,99472.41
2023-05-03T18:46:19.465Z,99480.45
2023-05-03T18:48:47.903Z,99477.54
2023-05-03T18:51:16.790Z,99487.40
2023-05-03T18:53:43.794Z,99496.08
2023-05-03T18:56:10.887Z,99496.97
2023-05-03T18:58:37.857Z,99499.20
2023-05-03T19:01:05.957Z,99490.55
2023-05-03T19:03:33.385Z,99504.23
2023-05-03T19:06:04.145Z,99505.11
2023-05-03T19:08:31.695Z,99510.23
2023-05-03T19:11:09.538Z,99505.88
2023-05-03T19:13:36.513Z,99502.04
2023-05-03T19:16:03.633Z,99505.17
2023-05-03T19:18:31.099Z,99502.06
2023-05-03T19:20:58.047Z,99509.70
2023-05-03T19:23:24.933Z,99511.16
2023-05-03T19:25:52.012Z,99504.89
2023-05-03T19:28:18.905Z,99504.99
2023-05-03T19:30:46.212Z,99511.00
2023-05-03T19:33:14.778Z,99514.79
2023-05-03T19:35:41.680Z,99518.35
2023-05-03T19:38:08.531Z,99513.32
2023-05-03T19:40:35.380Z,99526.30
2023-05-03T19:43:02.380Z,99522.95
2023-05-03T19:45:29.270Z,99530.10
2023-05-03T19:47:56.276Z,99532.41
2023-05-03T19:50:23.160Z,99531.38
2023-05-03T19:52:53.367Z,99536.96
2023-05-03T19:55:20.557Z,99539.94
2023-05-03T19:57:47.439Z,99537.14
2023-05-03T20:01:40.911Z,99542.58
2023-05-03T20:04:08.116Z,99538.79
2023-05-03T20:06:35.139Z,99535.98
2023-05-03T20:09:02.063Z,99535.64
2023-05-03T20:11:28.902Z,99532.44
2023-05-03T20:13:55.948Z,99533.02
2023-05-03T20:16:27.188Z,99529.85
2023-05-03T20:18:54.137Z,99532.00
2023-05-03T20:21:20.997Z,99542.65
2023-05-03T20:23:49.387Z,99550.09
2023-05-03T20:26:16.385Z,99555.60
2023-05-03T20:28:43.248Z,99557.36
2023-05-03T20:31:11.138Z,99561.18
2023-05-03T20:33:38.044Z,99567.46
2023-05-03T20:36:05.320Z,99565.00
2023-05-03T20:38:33.386Z,99570.05
2023-05-03T20:41:00.331Z,99569.23
2023-05-03T20:43:27.307Z,99572.27
2023-05-03T20:45:55.267Z,99575.91
2023-05-03T20:48:22.613Z,99575.42
2023-05-03T20:50:50.194Z,99574.70
2023-05-03T20:53:17.736Z,99573.50
2023-05-03T20:55:44.597Z,99568.11
2023-05-03T20:58:12.557Z,99566.06
2023-05-03T21:00:40.443Z,99566.13
2023-05-03T21:03:07.345Z,99564.41
2023-05-03T21:05:34.235Z,99569.16
2023-05-03T21:08:01.069Z,99569.02
2023-05-03T21:10:28.919Z,99574.11
2023-05-03T21:12:55.878Z,99574.86
2023-05-03T21:15:22.759Z,99573.14
2023-05-03T21:17:49.744Z,99573.81
2023-05-03T21:20:16.762Z,99577.58
2023-05-03T21:22:44.891Z,99580.40
2023-05-03T21:25:11.776Z,99580.52
2023-05-03T21:27:38.619Z,99576.46
2023-05-03T21:30:07.226Z,99578.32
2023-05-03T21:32:34.937Z,99579.09
2023-05-03T21:35:02.080Z,99579.39
2023-05-03T21:37:29.941Z,99584.59
2023-05-03T21:40:01.942Z,99581.06
2023-05-03T21:42:29.684Z,99582.34
2023-05-03T21:44:56.554Z,99583.25
2023-05-03T21:47:23.402Z,99582.25
2023-05-03T21:49:51.588Z,99584.05
2023-05-03T21:52:18.519Z,99583.54
2023-05-03T21:54:46.385Z,99581.73
2023-05-03T21:57:14.208Z,99576.93
2023-05-03T21:59:41.134Z,99571.21
2023-05-03T22:02:08.725Z,99569.89
2023-05-03T22:04:36.816Z,99566.30
2023-05-03T22:07:04.066Z,99570.00
2023-05-03T22:09:30.966Z,99570.80
2023-05-03T22:11:59.374Z,99574.70
2023-05-03T22:14:26.450Z,99573.17
2023-05-03T22:16:53.635Z,99571.62
2023-05-03T22:19:20.440Z,99572.13
2023-05-03T22:21:49.345Z,99564.49
2023-05-03T22:24:16.362Z,99554.48
2023-05-03T22:26:43.232Z,99556.45
2023-05-03T22:29:10.482Z,99559.07
2023-05-03T22:31:37.312Z,99559.92
2023-05-03T22:34:04.176Z,99563.68
2023-05-03T22:36:31.032Z,99564.79
2023-05-03T22:39:01.023Z,99566.42
2023-05-03T22:41:28.952Z,99565.77
2023-05-03T22:43:55.763Z,99562.80
2023-05-03T22:46:22.884Z,99562.47
2023-05-03T22:48:50.333Z,99564.79
2023-05-03T22:51:17.201Z,99564.95
2023-05-03T22:53:44.028Z,99562.31
2023-05-03T22:56:10.912Z,99566.33
2023-05-03T22:58:37.749Z,99564.48
2023-05-03T23:01:09.657Z,99568.67
2023-05-03T23:03:36.958Z,99569.10
2023-05-03T23:06:04.234Z,99559.73
2023-05-03T23:08:31.561Z,99561.73
2023-05-03T23:10:59.509Z,99557.52
2023-05-03T23:13:27.410Z,99554.33
2023-05-03T23:15:55.033Z,99554.58
2023-05-03T23:18:22.013Z,99549.33
2023-05-03T23:20:49.357Z,99544.26
2023-05-03T23:23:16.307Z,99541.00
2023-05-03T23:25:43.232Z,99545.63
2023-05-03T23:28:10.130Z,99544.71
2023-05-03T23:30:43.464Z,99543.44
2023-05-03T23:33:11.080Z,99543.98
2023-05-03T23:35:38.498Z,99544.10
2023-05-03T23:38:05.364Z,99544.28
2023-05-03T23:40:32.315Z,99541.02
2023-05-03T23:42:59.182Z,99543.07
2023-05-03T23:45:27.082Z,99537.16
2023-05-03T23:47:54.195Z,99536.67
2023-05-03T23:50:21.232Z,99539.05
2023-05-03T23:52:48.125Z,99533.89
2023-05-03T23:55:14.953Z,99532.67
2023-05-03T23:57:42.892Z,99534.75
